GLO1386 SBFL-SBSP
Flight info
| Callsign | GLO1386 |
|---|---|
| Flight time | 0h 47m |
| Altitude | 29000 |
| Route | UBROS UM540 ANISE |
| Aircraft | B738/M-SDFGIKLORWXY/LB1 |
Departure
| Time | 2026-05-06 12:54 |
|---|---|
| Airport | Hercílio Luz International Airport (SBFL) |
Arrival
| Time | 2026-05-06 13:42 |
|---|---|
| Airport | Congonhas–Deputado Freitas Nobre Airport (SBSP) |
| Time | Latitude | Longitude | Altitude | Speed | Heading |
|---|---|---|---|---|---|
| 2026-05-06 12:45 | -27.67270 | -48.54578 | 26 ft | 0 kts | 212° |
| 2026-05-06 12:46 | -27.67256 | -48.54569 | 29 ft | 4 kts | 203° |
| 2026-05-06 12:46 | -27.67231 | -48.54563 | 31 ft | 4 kts | 167° |
| 2026-05-06 12:47 | -27.67212 | -48.54575 | 29 ft | 2 kts | 121° |
| 2026-05-06 12:47 | -27.67209 | -48.54580 | 29 ft | 0 kts | 121° |
| 2026-05-06 12:48 | -27.67215 | -48.54568 | 29 ft | 4 kts | 121° |
| 2026-05-06 12:49 | -27.67242 | -48.54518 | 26 ft | 10 kts | 121° |
| 2026-05-06 12:49 | -27.67286 | -48.54436 | 27 ft | 13 kts | 117° |
| 2026-05-06 12:49 | -27.67256 | -48.54355 | 28 ft | 13 kts | 32° |
| 2026-05-06 12:49 | -27.67220 | -48.54279 | 30 ft | 13 kts | 109° |
| 2026-05-06 12:50 | -27.67269 | -48.54181 | 27 ft | 15 kts | 121° |
| 2026-05-06 12:50 | -27.67323 | -48.54080 | 29 ft | 15 kts | 121° |
| 2026-05-06 12:50 | -27.67375 | -48.53984 | 26 ft | 14 kts | 121° |
| 2026-05-06 12:50 | -27.67424 | -48.53892 | 28 ft | 13 kts | 121° |
| 2026-05-06 12:51 | -27.67472 | -48.53804 | 27 ft | 13 kts | 121° |
| 2026-05-06 12:51 | -27.67518 | -48.53719 | 30 ft | 13 kts | 121° |
| 2026-05-06 12:51 | -27.67563 | -48.53635 | 26 ft | 12 kts | 121° |
| 2026-05-06 12:51 | -27.67608 | -48.53555 | 27 ft | 12 kts | 122° |
| 2026-05-06 12:52 | -27.67652 | -48.53477 | 28 ft | 12 kts | 122° |
| 2026-05-06 12:52 | -27.67696 | -48.53401 | 28 ft | 11 kts | 122° |
| 2026-05-06 12:52 | -27.67737 | -48.53328 | 28 ft | 11 kts | 122° |
| 2026-05-06 12:52 | -27.67778 | -48.53256 | 26 ft | 11 kts | 122° |
| 2026-05-06 12:53 | -27.67810 | -48.53183 | 27 ft | 10 kts | 95° |
| 2026-05-06 12:53 | -27.67766 | -48.53124 | 27 ft | 10 kts | 36° |
| 2026-05-06 12:53 | -27.67708 | -48.53082 | 28 ft | 10 kts | 22° |
| 2026-05-06 12:53 | -27.67653 | -48.53110 | 26 ft | 10 kts | 302° |
| 2026-05-06 12:54 | -27.67529 | -48.53345 | 26 ft | 72 kts | 301° |
| 2026-05-06 12:54 | -27.67138 | -48.54068 | 29 ft | 140 kts | 302° |
| 2026-05-06 12:54 | -27.66547 | -48.55187 | 179 ft | 181 kts | 298° |
| 2026-05-06 12:54 | -27.65995 | -48.56431 | 1182 ft | 170 kts | 293° |
| 2026-05-06 12:55 | -27.65468 | -48.57583 | 2124 ft | 165 kts | 299° |
| 2026-05-06 12:55 | -27.64975 | -48.58273 | 2431 ft | 181 kts | 323° |
| 2026-05-06 12:55 | -27.63197 | -48.58492 | 2801 ft | 225 kts | 20° |
| 2026-05-06 12:55 | -27.61743 | -48.57575 | 3253 ft | 249 kts | 28° |
| 2026-05-06 12:56 | -27.60226 | -48.56580 | 4069 ft | 256 kts | 26° |
| 2026-05-06 12:56 | -27.59173 | -48.55913 | 4711 ft | 258 kts | 26° |
| 2026-05-06 12:56 | -27.57065 | -48.54620 | 5794 ft | 263 kts | 25° |
| 2026-05-06 12:56 | -27.55978 | -48.53970 | 5998 ft | 262 kts | 24° |
| 2026-05-06 12:57 | -27.53825 | -48.52710 | 6142 ft | 264 kts | 24° |
| 2026-05-06 12:57 | -27.52745 | -48.52087 | 6159 ft | 264 kts | 24° |
| 2026-05-06 12:57 | -27.51109 | -48.51147 | 6166 ft | 264 kts | 24° |
| 2026-05-06 12:57 | -27.49467 | -48.50209 | 6162 ft | 264 kts | 24° |
| 2026-05-06 12:58 | -27.47991 | -48.48994 | 6151 ft | 269 kts | 47° |
| 2026-05-06 12:58 | -27.46931 | -48.47203 | 6173 ft | 279 kts | 56° |
| 2026-05-06 12:58 | -27.45962 | -48.45291 | 6190 ft | 283 kts | 58° |
| 2026-05-06 12:58 | -27.45005 | -48.43355 | 6176 ft | 282 kts | 58° |
| 2026-05-06 12:59 | -27.44052 | -48.41426 | 6178 ft | 281 kts | 57° |
| 2026-05-06 12:59 | -27.43099 | -48.39507 | 6169 ft | 280 kts | 57° |
| 2026-05-06 12:59 | -27.42147 | -48.37599 | 6182 ft | 279 kts | 57° |
| 2026-05-06 12:59 | -27.41196 | -48.35698 | 6186 ft | 278 kts | 57° |
| 2026-05-06 13:00 | -27.40257 | -48.33826 | 6179 ft | 278 kts | 57° |
| 2026-05-06 13:00 | -27.39306 | -48.31928 | 6172 ft | 278 kts | 57° |
| 2026-05-06 13:00 | -27.38355 | -48.30032 | 6180 ft | 278 kts | 58° |
| 2026-05-06 13:00 | -27.37402 | -48.28138 | 6184 ft | 278 kts | 57° |
| 2026-05-06 13:01 | -27.36444 | -48.26243 | 6184 ft | 279 kts | 57° |
| 2026-05-06 13:01 | -27.35481 | -48.24345 | 6191 ft | 280 kts | 57° |
| 2026-05-06 13:01 | -27.34462 | -48.22484 | 6180 ft | 279 kts | 46° |
| 2026-05-06 13:01 | -27.32929 | -48.21206 | 6284 ft | 276 kts | 22° |
| 2026-05-06 13:02 | -27.31132 | -48.20403 | 7022 ft | 279 kts | 15° |
| 2026-05-06 13:02 | -27.29285 | -48.19711 | 7950 ft | 281 kts | 14° |
| 2026-05-06 13:02 | -27.27415 | -48.19032 | 8850 ft | 285 kts | 15° |
| 2026-05-06 13:02 | -27.25513 | -48.18337 | 9709 ft | 290 kts | 15° |
| 2026-05-06 13:03 | -27.23581 | -48.17619 | 10502 ft | 296 kts | 15° |
| 2026-05-06 13:03 | -27.21547 | -48.16857 | 10793 ft | 321 kts | 15° |
| 2026-05-06 13:03 | -27.19374 | -48.16030 | 11313 ft | 334 kts | 16° |
| 2026-05-06 13:03 | -27.17155 | -48.15175 | 12063 ft | 339 kts | 16° |
| 2026-05-06 13:04 | -27.14911 | -48.14309 | 12872 ft | 343 kts | 17° |
| 2026-05-06 13:04 | -27.12639 | -48.13432 | 13648 ft | 348 kts | 16° |
| 2026-05-06 13:04 | -27.10333 | -48.12543 | 14363 ft | 353 kts | 16° |
| 2026-05-06 13:04 | -27.07998 | -48.11642 | 15064 ft | 357 kts | 16° |
| 2026-05-06 13:05 | -27.05630 | -48.10729 | 15758 ft | 363 kts | 16° |
| 2026-05-06 13:05 | -27.03227 | -48.09803 | 16456 ft | 368 kts | 16° |
| 2026-05-06 13:05 | -27.00790 | -48.08863 | 17162 ft | 373 kts | 15° |
| 2026-05-06 13:05 | -26.98322 | -48.07910 | 17867 ft | 378 kts | 15° |
| 2026-05-06 13:06 | -26.95823 | -48.06943 | 18561 ft | 382 kts | 15° |
| 2026-05-06 13:06 | -26.93291 | -48.05967 | 19163 ft | 387 kts | 15° |
| 2026-05-06 13:06 | -26.90723 | -48.04982 | 19756 ft | 393 kts | 15° |
| 2026-05-06 13:06 | -26.88120 | -48.03986 | 20360 ft | 398 kts | 15° |
| 2026-05-06 13:07 | -26.85491 | -48.02985 | 20982 ft | 402 kts | 15° |
| 2026-05-06 13:07 | -26.82824 | -48.01973 | 21582 ft | 407 kts | 15° |
| 2026-05-06 13:07 | -26.80153 | -48.00959 | 22143 ft | 412 kts | 15° |
| 2026-05-06 13:07 | -26.77421 | -47.99918 | 22740 ft | 417 kts | 15° |
| 2026-05-06 13:08 | -26.74629 | -47.98853 | 23331 ft | 422 kts | 16° |
| 2026-05-06 13:08 | -26.71834 | -47.97785 | 23867 ft | 427 kts | 16° |
| 2026-05-06 13:08 | -26.69044 | -47.96717 | 24327 ft | 432 kts | 16° |
| 2026-05-06 13:08 | -26.66185 | -47.95623 | 24846 ft | 434 kts | 16° |
| 2026-05-06 13:09 | -26.63324 | -47.94529 | 25462 ft | 435 kts | 16° |
| 2026-05-06 13:09 | -26.60467 | -47.93438 | 26068 ft | 435 kts | 16° |
| 2026-05-06 13:09 | -26.57587 | -47.92340 | 26629 ft | 437 kts | 15° |
| 2026-05-06 13:09 | -26.54699 | -47.91240 | 27189 ft | 439 kts | 16° |
| 2026-05-06 13:10 | -26.51801 | -47.90136 | 27777 ft | 440 kts | 15° |
| 2026-05-06 13:10 | -26.48899 | -47.89030 | 28385 ft | 441 kts | 16° |
| 2026-05-06 13:10 | -26.45996 | -47.87924 | 28989 ft | 442 kts | 15° |
| 2026-05-06 13:10 | -26.43065 | -47.86807 | 29200 ft | 451 kts | 15° |
| 2026-05-06 13:11 | -26.40055 | -47.85660 | 29211 ft | 462 kts | 16° |
| 2026-05-06 13:11 | -26.36979 | -47.84485 | 29200 ft | 473 kts | 16° |
| 2026-05-06 13:11 | -26.33831 | -47.83281 | 29201 ft | 483 kts | 16° |
| 2026-05-06 13:12 | -26.27390 | -47.80819 | 29193 ft | 500 kts | 16° |
| 2026-05-06 13:12 | -26.20716 | -47.78271 | 29209 ft | 513 kts | 16° |
| 2026-05-06 13:13 | -26.13887 | -47.75676 | 29192 ft | 520 kts | 18° |
| 2026-05-06 13:13 | -26.10620 | -47.73961 | 29167 ft | 521 kts | 33° |
| 2026-05-06 13:13 | -26.07663 | -47.71652 | 29216 ft | 520 kts | 36° |
| 2026-05-06 13:14 | -26.01828 | -47.66888 | 29184 ft | 520 kts | 36° |
| 2026-05-06 13:14 | -25.95991 | -47.62153 | 29189 ft | 520 kts | 35° |
| 2026-05-06 13:15 | -25.90107 | -47.57467 | 29196 ft | 520 kts | 35° |
| 2026-05-06 13:15 | -25.84213 | -47.52811 | 29195 ft | 520 kts | 35° |
| 2026-05-06 13:16 | -25.78314 | -47.48158 | 29191 ft | 520 kts | 35° |
| 2026-05-06 13:16 | -25.72442 | -47.43527 | 29191 ft | 521 kts | 35° |
| 2026-05-06 13:17 | -25.66502 | -47.38845 | 29179 ft | 521 kts | 34° |
| 2026-05-06 13:17 | -25.60631 | -47.34223 | 29191 ft | 521 kts | 35° |
| 2026-05-06 13:18 | -25.54710 | -47.29567 | 29187 ft | 521 kts | 35° |
| 2026-05-06 13:18 | -25.48796 | -47.24923 | 29197 ft | 521 kts | 35° |
| 2026-05-06 13:19 | -25.42880 | -47.20282 | 29192 ft | 521 kts | 35° |
| 2026-05-06 13:19 | -25.36956 | -47.15639 | 29198 ft | 521 kts | 35° |
| 2026-05-06 13:20 | -25.31042 | -47.11009 | 29186 ft | 521 kts | 35° |
| 2026-05-06 13:20 | -25.25156 | -47.06403 | 29186 ft | 521 kts | 34° |
| 2026-05-06 13:21 | -25.19248 | -47.01778 | 29186 ft | 520 kts | 35° |
| 2026-05-06 13:21 | -25.13312 | -46.97198 | 29199 ft | 520 kts | 32° |
| 2026-05-06 13:22 | -25.07118 | -46.93053 | 29189 ft | 520 kts | 29° |
| 2026-05-06 13:22 | -25.00844 | -46.89064 | 29181 ft | 520 kts | 30° |
| 2026-05-06 13:23 | -24.94609 | -46.85034 | 29192 ft | 519 kts | 30° |
| 2026-05-06 13:23 | -24.91551 | -46.83034 | 29164 ft | 504 kts | 30° |
| 2026-05-06 13:23 | -24.88577 | -46.81087 | 29193 ft | 489 kts | 30° |
| 2026-05-06 13:23 | -24.85696 | -46.79202 | 29162 ft | 475 kts | 30° |
| 2026-05-06 13:24 | -24.82898 | -46.77374 | 29159 ft | 460 kts | 30° |
| 2026-05-06 13:24 | -24.80153 | -46.75581 | 28398 ft | 462 kts | 29° |
| 2026-05-06 13:24 | -24.77375 | -46.73759 | 27544 ft | 466 kts | 30° |
| 2026-05-06 13:24 | -24.74599 | -46.71934 | 26953 ft | 462 kts | 30° |
| 2026-05-06 13:25 | -24.71857 | -46.70134 | 26493 ft | 455 kts | 30° |
| 2026-05-06 13:25 | -24.69157 | -46.68365 | 26024 ft | 449 kts | 30° |
| 2026-05-06 13:25 | -24.66473 | -46.66609 | 25300 ft | 449 kts | 29° |
| 2026-05-06 13:25 | -24.63788 | -46.64857 | 24630 ft | 448 kts | 30° |
| 2026-05-06 13:26 | -24.61095 | -46.63239 | 23970 ft | 445 kts | 20° |
| 2026-05-06 13:26 | -24.58120 | -46.62424 | 23219 ft | 440 kts | 2° |
| 2026-05-06 13:26 | -24.55079 | -46.62366 | 22462 ft | 435 kts | 357° |
| 2026-05-06 13:26 | -24.52058 | -46.62435 | 21699 ft | 433 kts | 356° |
| 2026-05-06 13:27 | -24.49054 | -46.62510 | 20957 ft | 430 kts | 357° |
| 2026-05-06 13:27 | -24.46063 | -46.62555 | 20238 ft | 428 kts | 358° |
| 2026-05-06 13:27 | -24.43098 | -46.62572 | 19540 ft | 426 kts | 359° |
| 2026-05-06 13:27 | -24.40141 | -46.62580 | 18856 ft | 423 kts | 359° |
| 2026-05-06 13:28 | -24.37203 | -46.62583 | 18133 ft | 421 kts | 359° |
| 2026-05-06 13:28 | -24.34285 | -46.62584 | 17383 ft | 418 kts | 359° |
| 2026-05-06 13:28 | -24.31386 | -46.62584 | 16639 ft | 415 kts | 360° |
| 2026-05-06 13:28 | -24.28508 | -46.62582 | 15924 ft | 411 kts | 360° |
| 2026-05-06 13:29 | -24.25661 | -46.62583 | 15211 ft | 408 kts | 0° |
| 2026-05-06 13:29 | -24.22827 | -46.62585 | 14518 ft | 405 kts | 0° |
| 2026-05-06 13:29 | -24.20029 | -46.62587 | 13826 ft | 401 kts | 0° |
| 2026-05-06 13:29 | -24.17243 | -46.62592 | 13066 ft | 397 kts | 0° |
| 2026-05-06 13:30 | -24.14512 | -46.62596 | 12647 ft | 385 kts | 0° |
| 2026-05-06 13:30 | -24.11882 | -46.62602 | 12390 ft | 370 kts | 0° |
| 2026-05-06 13:30 | -24.09359 | -46.62608 | 12144 ft | 356 kts | 0° |
| 2026-05-06 13:30 | -24.06921 | -46.62613 | 11870 ft | 344 kts | 0° |
| 2026-05-06 13:31 | -24.04565 | -46.62618 | 11637 ft | 333 kts | 0° |
| 2026-05-06 13:31 | -24.02266 | -46.62621 | 11401 ft | 329 kts | 0° |
| 2026-05-06 13:31 | -23.99980 | -46.62621 | 11162 ft | 328 kts | 0° |
| 2026-05-06 13:31 | -23.97696 | -46.62619 | 10939 ft | 329 kts | 0° |
| 2026-05-06 13:32 | -23.95400 | -46.62614 | 10702 ft | 330 kts | 1° |
| 2026-05-06 13:32 | -23.93102 | -46.62611 | 10475 ft | 330 kts | 0° |
| 2026-05-06 13:32 | -23.90814 | -46.62612 | 10245 ft | 328 kts | 0° |
| 2026-05-06 13:32 | -23.88527 | -46.62615 | 10052 ft | 326 kts | 0° |
| 2026-05-06 13:33 | -23.86298 | -46.62704 | 9789 ft | 317 kts | 350° |
| 2026-05-06 13:33 | -23.84273 | -46.63499 | 9524 ft | 304 kts | 330° |
| 2026-05-06 13:33 | -23.82535 | -46.64705 | 9321 ft | 286 kts | 327° |
| 2026-05-06 13:33 | -23.80925 | -46.65866 | 9292 ft | 272 kts | 327° |
| 2026-05-06 13:34 | -23.79340 | -46.66992 | 9302 ft | 273 kts | 327° |
| 2026-05-06 13:34 | -23.77725 | -46.68127 | 9317 ft | 279 kts | 328° |
| 2026-05-06 13:34 | -23.76076 | -46.69272 | 9316 ft | 282 kts | 328° |
| 2026-05-06 13:34 | -23.74425 | -46.70419 | 9317 ft | 281 kts | 328° |
| 2026-05-06 13:35 | -23.72779 | -46.71566 | 9322 ft | 281 kts | 328° |
| 2026-05-06 13:35 | -23.71128 | -46.72710 | 9152 ft | 285 kts | 328° |
| 2026-05-06 13:35 | -23.69442 | -46.73876 | 8814 ft | 286 kts | 328° |
| 2026-05-06 13:35 | -23.67749 | -46.75048 | 8259 ft | 288 kts | 328° |
| 2026-05-06 13:36 | -23.66089 | -46.76201 | 7888 ft | 278 kts | 328° |
| 2026-05-06 13:36 | -23.64486 | -46.77316 | 7588 ft | 270 kts | 328° |
| 2026-05-06 13:36 | -23.62900 | -46.78414 | 7290 ft | 269 kts | 328° |
| 2026-05-06 13:36 | -23.61309 | -46.79517 | 7005 ft | 275 kts | 328° |
| 2026-05-06 13:37 | -23.59662 | -46.80632 | 6646 ft | 280 kts | 334° |
| 2026-05-06 13:37 | -23.57819 | -46.81138 | 6304 ft | 270 kts | 3° |
| 2026-05-06 13:37 | -23.56066 | -46.80661 | 6162 ft | 252 kts | 28° |
| 2026-05-06 13:37 | -23.54713 | -46.79580 | 6008 ft | 233 kts | 49° |
| 2026-05-06 13:38 | -23.53794 | -46.78220 | 5933 ft | 215 kts | 56° |
| 2026-05-06 13:38 | -23.53270 | -46.77343 | 5870 ft | 204 kts | 56° |
| 2026-05-06 13:38 | -23.52525 | -46.76083 | 5755 ft | 189 kts | 56° |
| 2026-05-06 13:38 | -23.51974 | -46.74849 | 5596 ft | 175 kts | 78° |
| 2026-05-06 13:39 | -23.52177 | -46.73556 | 5237 ft | 174 kts | 121° |
| 2026-05-06 13:39 | -23.53004 | -46.72570 | 4722 ft | 185 kts | 135° |
| 2026-05-06 13:39 | -23.53999 | -46.71689 | 4420 ft | 178 kts | 139° |
| 2026-05-06 13:39 | -23.54988 | -46.70950 | 4208 ft | 163 kts | 142° |
| 2026-05-06 13:40 | -23.56193 | -46.70109 | 3923 ft | 147 kts | 140° |
| 2026-05-06 13:40 | -23.56779 | -46.69703 | 3820 ft | 147 kts | 149° |
| 2026-05-06 13:40 | -23.57704 | -46.69233 | 3639 ft | 147 kts | 154° |
| 2026-05-06 13:40 | -23.58562 | -46.68656 | 3472 ft | 143 kts | 140° |
| 2026-05-06 13:41 | -23.59367 | -46.67982 | 3313 ft | 145 kts | 142° |
| 2026-05-06 13:41 | -23.60211 | -46.67355 | 3103 ft | 146 kts | 145° |
| 2026-05-06 13:41 | -23.61283 | -46.66616 | 2816 ft | 148 kts | 144° |
| 2026-05-06 13:41 | -23.62010 | -46.66106 | 2656 ft | 148 kts | 145° |
| 2026-05-06 13:42 | -23.62821 | -46.65541 | 2607 ft | 101 kts | 147° |
| 2026-05-06 13:42 | -23.63121 | -46.65372 | 2610 ft | 23 kts | 188° |
| 2026-05-06 13:42 | -23.63175 | -46.65427 | 2602 ft | 16 kts | 288° |
| 2026-05-06 13:42 | -23.63082 | -46.65504 | 2601 ft | 16 kts | 328° |
| 2026-05-06 13:43 | -23.62977 | -46.65540 | 2602 ft | 16 kts | 336° |
| 2026-05-06 13:43 | -23.62888 | -46.65601 | 2602 ft | 15 kts | 327° |
| 2026-05-06 13:43 | -23.62803 | -46.65662 | 2602 ft | 14 kts | 327° |
| 2026-05-06 13:43 | -23.62721 | -46.65719 | 2601 ft | 14 kts | 327° |
| 2026-05-06 13:44 | -23.62697 | -46.65787 | 2600 ft | 10 kts | 237° |
| 2026-05-06 13:44 | -23.62716 | -46.65818 | 2600 ft | 1 kts | 238° |
| 2026-05-06 13:44 | -23.62719 | -46.65825 | 2599 ft | 0 kts | 238° |